KFME/FME METAR and TAF weather

Enter ICAO airport designator
Station Type Date Time Source
KFME METAR 2022/01/29 01:35 UTC NOAA

KFME 290135Z AUTO 00000KT 2 1/2SM OVC007 00/00 A3000 RMK AO1


Station Type Date Time Source
KFME Decoded METAR 2022/01/29 01:35 UTC NOAA

Fort Meade / Tipton, MD, United States (KFME) 39-05N 076-46W
Jan 28, 2022 - 08:35 PM EST / 2022.01.29 0135 UTC
Wind: Calm:0
Visibility: 2 1/2 mile(s):0
Sky conditions: overcast
Temperature: 32 F (0 C)
Dew Point: 32 F (0 C)
Relative Humidity: 100%
Pressure (altimeter): 30 in. Hg (1015 hPa)
ob: KFME 290135Z AUTO 00000KT 2 1/2SM OVC007 00/00 A3000 RMK AO1
cycle: 1

Station Type Date Time Source
KFME TAF UTC NOAA

Error!

Example: see airport list